Time;durP1;ratioP1;P1;durP2;ratioP2;P2;SDS_P1;SDS_P2;PMS_P1;PMS_P2;Temp;Humidity;BMP_temperature;BMP_pressure;BME280_temperature;BME280_humidity;BME280_pressure;Samples;Min_cycle;Max_cycle;Signal;HPM_P1;HPM_P2
2021/07/30 00:02:08;;;;;;;4.43;2.20;;;;;;;;;;5077736;28;20448;-52
2021/07/30 00:04:34;;;;;;;2.97;2.08;;;;;;;;;;5080459;28;20039;-51
2021/07/30 00:07:00;;;;;;;4.50;2.47;;;;;;;;;;5082417;28;20053;-50
2021/07/30 00:09:27;;;;;;;5.10;2.13;;;;;;;;;;5076000;28;20083;-49
2021/07/30 00:11:53;;;;;;;6.55;2.30;;;;;;;;;;5079549;28;20042;-51
2021/07/30 00:14:18;;;;;;;4.30;2.13;;;;;;;;;;5068628;28;20023;-49
2021/07/30 00:16:44;;;;;;;6.10;2.42;;;;;;;;;;5078527;28;20020;-47
2021/07/30 00:19:11;;;;;;;4.68;2.17;;;;;;;;;;5073296;28;20158;-48
2021/07/30 00:21:37;;;;;;;4.38;2.00;;;;;;;;;;5089175;28;20024;-47
2021/07/30 00:24:03;;;;;;;4.00;2.10;;;;;;;;;;5065205;28;20038;-47
2021/07/30 00:26:29;;;;;;;7.75;2.38;;;;;;;;;;5091544;28;20411;-49
2021/07/30 00:28:55;;;;;;;7.32;2.60;;;;;;;;;;5057376;28;20384;-48
2021/07/30 00:31:21;;;;;;;5.40;2.42;;;;;;;;;;5083984;28;20383;-48
2021/07/30 00:33:47;;;;;;;3.88;2.30;;;;;;;;;;5079325;28;20035;-50
2021/07/30 00:36:13;;;;;;;6.53;2.30;;;;;;;;;;5086914;28;20429;-53
2021/07/30 00:38:39;;;;;;;5.32;2.35;;;;;;;;;;5072139;28;20028;-52
2021/07/30 00:41:05;;;;;;;4.22;2.13;;;;;;;;;;5071330;28;20025;-52
2021/07/30 00:43:31;;;;;;;5.47;2.30;;;;;;;;;;5058145;28;20040;-49
2021/07/30 00:45:58;;;;;;;7.68;2.47;;;;;;;;;;5066690;28;20025;-53
2021/07/30 00:48:25;;;;;;;6.70;2.63;;;;;;;;;;5078243;28;20020;-50
2021/07/30 00:50:52;;;;;;;4.55;2.08;;;;;;;;;;5072375;28;20020;-49
2021/07/30 00:53:18;;;;;;;3.85;2.60;;;;;;;;;;5085332;28;20030;-49
2021/07/30 00:55:45;;;;;;;3.83;2.00;;;;;;;;;;5078149;28;20027;-47
2021/07/30 00:58:11;;;;;;;5.78;2.35;;;;;;;;;;5067242;28;20436;-48
2021/07/30 01:00:38;;;;;;;3.30;1.95;;;;;;;;;;5083150;28;20036;-47
2021/07/30 01:03:04;;;;;;;2.85;2.00;;;;;;;;;;5077109;28;20032;-48
2021/07/30 01:05:31;;;;;;;4.63;2.40;;;;;;;;;;5071717;28;20099;-50
2021/07/30 01:07:57;;;;;;;4.70;2.45;;;;;;;;;;5059495;28;20112;-50
2021/07/30 01:10:23;;;;;;;3.40;2.10;;;;;;;;;;5089097;28;20044;-50
2021/07/30 01:12:49;;;;;;;4.85;2.33;;;;;;;;;;5072998;28;20032;-51
2021/07/30 01:15:15;;;;;;;4.57;2.25;;;;;;;;;;5052348;28;20480;-51
2021/07/30 01:17:41;;;;;;;6.05;2.63;;;;;;;;;;5051350;28;20044;-51
2021/07/30 01:20:10;;;;;;;5.88;2.40;;;;;;;;;;5092324;28;20099;-48
2021/07/30 01:22:47;;;;;;;8.82;2.40;;;;;;;;;;5076609;28;20032;-48
2021/07/30 01:25:13;;;;;;;3.10;1.88;;;;;;;;;;5083338;28;20033;-48
2021/07/30 01:27:39;;;;;;;4.22;2.35;;;;;;;;;;5070631;28;20412;-47
2021/07/30 01:30:05;;;;;;;3.10;1.88;;;;;;;;;;5087453;28;20062;-48
2021/07/30 01:32:31;;;;;;;5.53;2.35;;;;;;;;;;5073477;28;20029;-49
2021/07/30 01:34:58;;;;;;;5.78;2.60;;;;;;;;;;5083123;28;20067;-48
2021/07/30 01:37:26;;;;;;;6.07;2.15;;;;;;;;;;5071452;28;20035;-49
2021/07/30 01:39:52;;;;;;;6.15;2.67;;;;;;;;;;5070266;28;20027;-47
2021/07/30 01:42:18;;;;;;;5.30;2.38;;;;;;;;;;5066530;28;20039;-47
2021/07/30 01:44:44;;;;;;;7.35;3.00;;;;;;;;;;5051641;28;20385;-50
2021/07/30 01:47:10;;;;;;;3.38;2.10;;;;;;;;;;5053416;28;20025;-48
2021/07/30 01:49:36;;;;;;;4.97;2.25;;;;;;;;;;5069662;28;20115;-50
2021/07/30 01:52:02;;;;;;;3.97;2.35;;;;;;;;;;5087706;28;20029;-51
2021/07/30 01:54:28;;;;;;;3.78;2.13;;;;;;;;;;5085596;28;20056;-48
2021/07/30 01:56:54;;;;;;;5.28;2.55;;;;;;;;;;5081077;28;20057;-48
2021/07/30 01:59:20;;;;;;;4.55;2.67;;;;;;;;;;5063847;28;20029;-50
2021/07/30 02:01:46;;;;;;;2.90;2.25;;;;;;;;;;5074401;28;20051;-50
2021/07/30 02:04:12;;;;;;;4.13;2.35;;;;;;;;;;5083928;28;20106;-50
2021/07/30 02:06:38;;;;;;;5.95;2.53;;;;;;;;;;5079788;28;20111;-49
2021/07/30 02:09:04;;;;;;;4.47;2.35;;;;;;;;;;5071666;28;20048;-48
2021/07/30 02:11:30;;;;;;;5.28;2.70;;;;;;;;;;5077828;28;20037;-47
2021/07/30 02:16:40;;;;;;;4.38;2.15;;;;;;;;;;5075434;28;20590;-47
2021/07/30 02:19:06;;;;;;;4.00;2.47;;;;;;;;;;5066521;28;20051;-49
2021/07/30 02:21:32;;;;;;;9.00;2.58;;;;;;;;;;5091901;28;20027;-47
2021/07/30 02:23:58;;;;;;;6.53;2.90;;;;;;;;;;5077873;28;20027;-48
2021/07/30 02:26:24;;;;;;;6.45;2.33;;;;;;;;;;5087390;28;20051;-52
2021/07/30 02:28:50;;;;;;;4.50;2.65;;;;;;;;;;5083347;28;20469;-50
2021/07/30 02:31:16;;;;;;;4.65;2.83;;;;;;;;;;5072865;28;20021;-51
2021/07/30 02:33:42;;;;;;;4.45;2.30;;;;;;;;;;5083089;28;20028;-50
2021/07/30 02:36:08;;;;;;;3.95;2.40;;;;;;;;;;5066681;28;20051;-54
2021/07/30 02:38:34;;;;;;;8.48;2.47;;;;;;;;;;5071366;28;20085;-48
2021/07/30 02:41:00;;;;;;;3.30;2.58;;;;;;;;;;5074876;28;20115;-51
2021/07/30 02:43:26;;;;;;;4.80;2.47;;;;;;;;;;5063766;28;20041;-49
2021/07/30 02:45:52;;;;;;;6.45;2.80;;;;;;;;;;5085193;28;20033;-48
2021/07/30 02:48:18;;;;;;;5.57;2.30;;;;;;;;;;5062752;28;20033;-47
2021/07/30 02:50:44;;;;;;;5.53;2.10;;;;;;;;;;5091923;28;20467;-49
2021/07/30 02:53:10;;;;;;;6.95;2.63;;;;;;;;;;5090249;28;20054;-48
2021/07/30 02:55:36;;;;;;;3.92;2.35;;;;;;;;;;5065076;28;20459;-48
2021/07/30 02:58:02;;;;;;;4.88;2.78;;;;;;;;;;5069150;28;20032;-49
2021/07/30 03:00:28;;;;;;;4.43;2.53;;;;;;;;;;5071628;28;20024;-48
2021/07/30 03:02:54;;;;;;;6.15;3.15;;;;;;;;;;5063962;28;20479;-48
2021/07/30 03:05:20;;;;;;;6.00;3.28;;;;;;;;;;5072659;28;20024;-51
2021/07/30 03:07:46;;;;;;;8.60;2.80;;;;;;;;;;5072147;28;20033;-50
2021/07/30 03:10:12;;;;;;;5.43;3.00;;;;;;;;;;5084948;28;20063;-50
2021/07/30 03:12:38;;;;;;;5.28;2.60;;;;;;;;;;5066467;28;20029;-49
2021/07/30 03:15:04;;;;;;;4.93;2.40;;;;;;;;;;5068280;28;20036;-49
2021/07/30 03:17:30;;;;;;;3.60;2.53;;;;;;;;;;5076269;28;20025;-49
2021/07/30 03:19:56;;;;;;;3.97;2.10;;;;;;;;;;5090168;28;20028;-48
2021/07/30 03:22:22;;;;;;;7.32;2.55;;;;;;;;;;5079223;28;20029;-48
2021/07/30 03:24:48;;;;;;;3.58;2.60;;;;;;;;;;5072173;28;20039;-47
2021/07/30 03:27:13;;;;;;;3.35;2.55;;;;;;;;;;5085210;28;20530;-48
2021/07/30 03:29:40;;;;;;;3.47;2.17;;;;;;;;;;5093442;28;20380;-48
2021/07/30 03:32:08;;;;;;;7.13;2.75;;;;;;;;;;5076278;28;20021;-48
2021/07/30 03:34:34;;;;;;;3.50;2.25;;;;;;;;;;5064156;28;20132;-48
2021/07/30 03:37:00;;;;;;;7.00;2.95;;;;;;;;;;5085540;28;20107;-49
2021/07/30 03:39:26;;;;;;;8.05;2.67;;;;;;;;;;5068995;28;20035;-49
2021/07/30 03:41:52;;;;;;;3.92;2.40;;;;;;;;;;5080946;28;20077;-51
2021/07/30 03:44:18;;;;;;;8.45;2.83;;;;;;;;;;5077941;28;20024;-53
2021/07/30 03:46:44;;;;;;;2.70;1.88;;;;;;;;;;5068567;28;20029;-47
2021/07/30 03:49:10;;;;;;;4.70;2.72;;;;;;;;;;5064329;28;20016;-50
2021/07/30 03:51:36;;;;;;;7.25;2.40;;;;;;;;;;5081137;28;20024;-48
2021/07/30 03:54:02;;;;;;;6.40;2.80;;;;;;;;;;5089132;28;20128;-48
2021/07/30 03:56:28;;;;;;;3.85;2.60;;;;;;;;;;5066323;28;20033;-48
2021/07/30 03:58:54;;;;;;;6.80;2.53;;;;;;;;;;5059037;28;20472;-47
2021/07/30 04:01:20;;;;;;;4.85;2.63;;;;;;;;;;5069590;28;20397;-49
2021/07/30 04:03:46;;;;;;;4.22;2.42;;;;;;;;;;5083837;28;20032;-47
2021/07/30 04:06:12;;;;;;;5.28;2.40;;;;;;;;;;5062261;28;20449;-49
2021/07/30 04:08:39;;;;;;;4.47;2.45;;;;;;;;;;5063206;28;20027;-49
2021/07/30 04:11:05;;;;;;;6.80;2.70;;;;;;;;;;5083081;28;20043;-47
2021/07/30 04:13:33;;;;;;;4.78;2.50;;;;;;;;;;5062661;28;20028;-48
2021/07/30 04:16:06;;;;;;;5.97;2.20;;;;;;;;;;5086038;28;20020;-52
2021/07/30 04:18:32;;;;;;;5.20;2.88;;;;;;;;;;5062310;28;20059;-51
2021/07/30 04:20:58;;;;;;;3.88;2.45;;;;;;;;;;5053368;28;20056;-50
2021/07/30 04:23:24;;;;;;;5.28;3.17;;;;;;;;;;5070852;28;20539;-50
2021/07/30 04:25:50;;;;;;;6.78;2.38;;;;;;;;;;5092854;28;20093;-49
2021/07/30 04:28:16;;;;;;;4.30;2.50;;;;;;;;;;5073470;28;20460;-48
2021/07/30 04:30:42;;;;;;;5.32;2.40;;;;;;;;;;5060413;28;20029;-47
2021/07/30 04:33:09;;;;;;;4.75;2.78;;;;;;;;;;5063234;28;20157;-53
2021/07/30 04:35:38;;;;;;;6.22;2.40;;;;;;;;;;5055482;28;20025;-51
2021/07/30 04:38:05;;;;;;;4.00;2.45;;;;;;;;;;5077085;28;20388;-48
2021/07/30 04:40:31;;;;;;;6.28;2.45;;;;;;;;;;5088033;28;20095;-50
2021/07/30 04:42:57;;;;;;;3.75;2.40;;;;;;;;;;5059100;28;20668;-48
2021/07/30 04:45:23;;;;;;;7.35;3.05;;;;;;;;;;5070077;28;20357;-49
2021/07/30 04:47:49;;;;;;;8.48;2.78;;;;;;;;;;5065622;28;20032;-49
2021/07/30 04:50:15;;;;;;;4.88;2.33;;;;;;;;;;5083359;28;20036;-48
2021/07/30 04:52:41;;;;;;;4.00;2.03;;;;;;;;;;5076449;28;20040;-51
2021/07/30 04:55:07;;;;;;;4.82;2.40;;;;;;;;;;5073727;28;20021;-53
2021/07/30 04:57:33;;;;;;;3.72;2.38;;;;;;;;;;5072129;28;20127;-50
2021/07/30 04:59:59;;;;;;;4.25;2.50;;;;;;;;;;5054543;28;20055;-48
2021/07/30 05:02:25;;;;;;;3.97;2.47;;;;;;;;;;5078704;28;20094;-47
2021/07/30 05:04:54;;;;;;;4.25;2.20;;;;;;;;;;5066402;28;20087;-48
2021/07/30 05:07:20;;;;;;;7.35;2.70;;;;;;;;;;5092506;28;20036;-47
2021/07/30 05:09:46;;;;;;;6.78;2.80;;;;;;;;;;5091449;28;20128;-47
2021/07/30 05:12:12;;;;;;;4.38;2.60;;;;;;;;;;5072813;28;20437;-48
2021/07/30 05:14:38;;;;;;;4.22;2.08;;;;;;;;;;5067063;28;20465;-48
2021/07/30 05:17:04;;;;;;;8.43;2.40;;;;;;;;;;5080762;28;20384;-48
2021/07/30 05:19:30;;;;;;;4.95;2.80;;;;;;;;;;5081655;28;20027;-48
2021/07/30 05:21:56;;;;;;;8.35;2.63;;;;;;;;;;5066292;28;20028;-47
2021/07/30 05:24:22;;;;;;;6.10;2.42;;;;;;;;;;5068767;28;20028;-49
2021/07/30 05:26:48;;;;;;;5.05;2.40;;;;;;;;;;5077936;28;20033;-49
2021/07/30 05:29:14;;;;;;;11.95;2.60;;;;;;;;;;5068168;28;20021;-48
2021/07/30 05:31:40;;;;;;;4.80;2.47;;;;;;;;;;5084378;28;20434;-52
2021/07/30 05:34:06;;;;;;;7.18;2.13;;;;;;;;;;5067655;28;20064;-52
2021/07/30 05:36:32;;;;;;;6.18;2.33;;;;;;;;;;5083861;28;20032;-51
2021/07/30 05:38:58;;;;;;;5.28;1.88;;;;;;;;;;5071629;28;20036;-48
2021/07/30 05:41:24;;;;;;;6.20;2.60;;;;;;;;;;5064502;28;20468;-49
2021/07/30 05:43:50;;;;;;;6.10;2.40;;;;;;;;;;5066994;28;20024;-50
2021/07/30 05:46:19;;;;;;;7.18;2.50;;;;;;;;;;5064096;28;20029;-48
2021/07/30 05:48:45;;;;;;;7.60;2.50;;;;;;;;;;5064715;28;20832;-47
2021/07/30 05:51:11;;;;;;;6.70;2.40;;;;;;;;;;5059773;28;20410;-48
2021/07/30 05:53:38;;;;;;;4.90;2.55;;;;;;;;;;5058377;28;20495;-49
2021/07/30 05:56:04;;;;;;;5.13;2.55;;;;;;;;;;5070015;28;20028;-48
2021/07/30 05:58:31;;;;;;;5.80;2.50;;;;;;;;;;5074552;28;20028;-48
2021/07/30 06:00:57;;;;;;;7.68;2.53;;;;;;;;;;5073638;28;20473;-47
2021/07/30 06:03:23;;;;;;;4.57;2.13;;;;;;;;;;5072518;28;20461;-47
2021/07/30 06:05:49;;;;;;;9.23;2.40;;;;;;;;;;5090014;28;20166;-48
2021/07/30 06:08:16;;;;;;;6.45;2.05;;;;;;;;;;5075828;28;20028;-48
2021/07/30 06:10:42;;;;;;;7.57;2.50;;;;;;;;;;5063715;28;20488;-48
2021/07/30 06:13:08;;;;;;;4.57;2.15;;;;;;;;;;5083370;28;20032;-49
2021/07/30 06:15:34;;;;;;;5.18;3.05;;;;;;;;;;5069425;28;20135;-51
2021/07/30 06:18:03;;;;;;;7.25;3.22;;;;;;;;;;5081273;28;20052;-49
2021/07/30 06:20:30;;;;;;;7.20;2.92;;;;;;;;;;5065502;28;20029;-50
2021/07/30 06:22:56;;;;;;;9.60;2.60;;;;;;;;;;5071240;28;20040;-48
2021/07/30 06:25:22;;;;;;;7.45;2.72;;;;;;;;;;5090648;28;20061;-48
2021/07/30 06:27:48;;;;;;;4.40;2.70;;;;;;;;;;5084534;28;20032;-48
2021/07/30 06:30:14;;;;;;;9.10;2.25;;;;;;;;;;5077018;28;20056;-48
2021/07/30 06:32:40;;;;;;;9.50;2.60;;;;;;;;;;5076638;28;20472;-47
2021/07/30 06:35:07;;;;;;;9.15;2.75;;;;;;;;;;5065558;28;20456;-50
2021/07/30 06:37:33;;;;;;;6.35;2.25;;;;;;;;;;5069085;28;20036;-48
2021/07/30 06:40:00;;;;;;;7.05;2.15;;;;;;;;;;5077792;28;20115;-48
2021/07/30 06:42:26;;;;;;;8.77;2.92;;;;;;;;;;5070874;28;20051;-50
2021/07/30 06:44:52;;;;;;;9.88;2.78;;;;;;;;;;5060341;28;20029;-49
2021/07/30 06:47:23;;;;;;;6.75;2.22;;;;;;;;;;5063379;28;20033;-52
2021/07/30 06:49:49;;;;;;;6.40;2.40;;;;;;;;;;5076137;28;20037;-50
2021/07/30 06:52:15;;;;;;;7.30;2.30;;;;;;;;;;5085942;28;20107;-50
2021/07/30 06:54:41;;;;;;;7.50;2.53;;;;;;;;;;5071260;28;20104;-49
2021/07/30 06:57:08;;;;;;;7.80;2.58;;;;;;;;;;5065703;28;20029;-49
2021/07/30 06:59:34;;;;;;;10.15;2.45;;;;;;;;;;5063238;28;20071;-48
2021/07/30 07:02:03;;;;;;;5.38;1.95;;;;;;;;;;5055332;28;20044;-48
2021/07/30 07:04:29;;;;;;;9.60;3.17;;;;;;;;;;5059921;28;20035;-52
2021/07/30 07:06:55;;;;;;;11.15;2.67;;;;;;;;;;5061865;28;20033;-48
2021/07/30 07:09:21;;;;;;;6.53;2.38;;;;;;;;;;5083249;28;20517;-50
2021/07/30 07:11:47;;;;;;;6.40;2.33;;;;;;;;;;5071779;28;20536;-48
2021/07/30 07:14:14;;;;;;;4.70;2.30;;;;;;;;;;5069508;28;20100;-48
2021/07/30 07:16:43;;;;;;;8.32;2.58;;;;;;;;;;5072674;28;20499;-48
2021/07/30 07:19:12;;;;;;;5.80;2.80;;;;;;;;;;5080838;28;20105;-51
2021/07/30 07:21:39;;;;;;;6.85;2.67;;;;;;;;;;5080613;28;20028;-50
2021/07/30 07:24:05;;;;;;;4.97;2.45;;;;;;;;;;5090282;28;20123;-50
2021/07/30 07:26:31;;;;;;;7.00;2.78;;;;;;;;;;5063858;28;20028;-50
2021/07/30 07:28:57;;;;;;;13.88;2.95;;;;;;;;;;5077511;28;20031;-48
2021/07/30 07:31:23;;;;;;;7.97;2.90;;;;;;;;;;5061071;28;20104;-48
2021/07/30 07:33:49;;;;;;;14.88;2.95;;;;;;;;;;5063432;28;20029;-48
2021/07/30 07:36:15;;;;;;;6.07;2.55;;;;;;;;;;5073169;28;20029;-49
2021/07/30 07:38:43;;;;;;;9.10;2.50;;;;;;;;;;5062906;28;20087;-48
2021/07/30 07:41:09;;;;;;;6.00;2.70;;;;;;;;;;5083872;28;20024;-48
2021/07/30 07:43:36;;;;;;;7.78;2.72;;;;;;;;;;5061303;28;20043;-48
2021/07/30 07:46:02;;;;;;;8.30;2.70;;;;;;;;;;5088433;28;20036;-50
2021/07/30 07:48:28;;;;;;;8.07;2.45;;;;;;;;;;5093352;28;20036;-48
2021/07/30 07:50:54;;;;;;;8.38;2.60;;;;;;;;;;5093588;28;20028;-48
2021/07/30 07:53:20;;;;;;;9.85;2.72;;;;;;;;;;5093548;28;20456;-50
2021/07/30 07:55:46;;;;;;;8.25;2.75;;;;;;;;;;5078842;28;20090;-49
2021/07/30 07:58:13;;;;;;;8.85;3.13;;;;;;;;;;5064530;28;20017;-48
2021/07/30 08:00:40;;;;;;;12.05;2.83;;;;;;;;;;5060078;28;20021;-51
2021/07/30 08:03:06;;;;;;;8.43;3.38;;;;;;;;;;5079384;28;20046;-48
2021/07/30 08:05:32;;;;;;;9.07;2.78;;;;;;;;;;5081972;28;20384;-48
2021/07/30 08:07:58;;;;;;;9.77;2.65;;;;;;;;;;5069691;28;20021;-48
2021/07/30 08:10:24;;;;;;;8.20;2.70;;;;;;;;;;5082374;28;20076;-48
2021/07/30 08:12:50;;;;;;;9.48;2.63;;;;;;;;;;5075506;28;20445;-51
2021/07/30 08:15:16;;;;;;;6.22;3.00;;;;;;;;;;5071226;28;20056;-48
2021/07/30 08:17:42;;;;;;;7.95;2.33;;;;;;;;;;5085482;28;20421;-50
2021/07/30 08:20:08;;;;;;;10.52;2.78;;;;;;;;;;5069623;28;20076;-51
2021/07/30 08:22:35;;;;;;;3.58;2.22;;;;;;;;;;5080920;28;20368;-50
2021/07/30 08:25:01;;;;;;;9.55;2.90;;;;;;;;;;5068065;28;20036;-52
2021/07/30 08:27:27;;;;;;;9.82;2.97;;;;;;;;;;5069454;28;20460;-49
2021/07/30 08:29:53;;;;;;;4.45;2.40;;;;;;;;;;5091979;28;20034;-49
2021/07/30 08:32:19;;;;;;;8.43;2.85;;;;;;;;;;5086484;28;20099;-51
2021/07/30 08:34:45;;;;;;;6.85;2.85;;;;;;;;;;5092814;28;20077;-51
2021/07/30 08:37:11;;;;;;;6.63;2.78;;;;;;;;;;5072662;28;20024;-48
2021/07/30 08:39:37;;;;;;;5.43;2.78;;;;;;;;;;5063127;28;20071;-49
2021/07/30 08:42:05;;;;;;;7.55;2.60;;;;;;;;;;5065637;28;20040;-51
2021/07/30 08:44:31;;;;;;;4.95;2.08;;;;;;;;;;5067630;28;20036;-51
2021/07/30 08:46:57;;;;;;;7.32;2.47;;;;;;;;;;5057614;28;20421;-51
2021/07/30 08:49:23;;;;;;;10.73;2.25;;;;;;;;;;5080350;28;20031;-50
2021/07/30 08:51:51;;;;;;;6.53;2.17;;;;;;;;;;5064829;28;20103;-50
2021/07/30 08:54:17;;;;;;;5.38;2.40;;;;;;;;;;5057312;28;20025;-49
2021/07/30 08:56:43;;;;;;;10.00;2.78;;;;;;;;;;5067208;28;20035;-48
2021/07/30 08:59:09;;;;;;;8.65;2.70;;;;;;;;;;5072983;28;20859;-49
2021/07/30 09:01:36;;;;;;;8.20;2.22;;;;;;;;;;5086618;28;20693;-50
2021/07/30 09:04:04;;;;;;;7.15;2.45;;;;;;;;;;5081933;28;20029;-50
2021/07/30 09:06:30;;;;;;;7.15;2.38;;;;;;;;;;5074566;28;20111;-51
2021/07/30 09:08:56;;;;;;;6.30;2.17;;;;;;;;;;5066004;28;20047;-51
2021/07/30 09:11:32;;;;;;;9.38;2.85;;;;;;;;;;5072332;28;20032;-53
2021/07/30 09:14:00;;;;;;;3.83;1.88;;;;;;;;;;5062090;28;20025;-49
2021/07/30 09:16:26;;;;;;;8.77;2.75;;;;;;;;;;5066163;28;20099;-48
2021/07/30 09:18:53;;;;;;;7.03;2.22;;;;;;;;;;5091776;28;20078;-50
2021/07/30 09:21:19;;;;;;;5.45;2.50;;;;;;;;;;5092629;28;20024;-49
2021/07/30 09:23:46;;;;;;;5.78;2.20;;;;;;;;;;5090314;28;20035;-50
2021/07/30 09:26:26;;;;;;;6.53;2.50;;;;;;;;;;5063801;28;20031;-52
2021/07/30 09:28:53;;;;;;;8.13;2.50;;;;;;;;;;5078497;28;20032;-48
2021/07/30 09:31:19;;;;;;;4.72;2.20;;;;;;;;;;5067202;28;20017;-50
2021/07/30 09:33:45;;;;;;;6.70;2.55;;;;;;;;;;5081049;28;20394;-49
2021/07/30 09:36:11;;;;;;;12.57;2.97;;;;;;;;;;5074722;28;20100;-48
2021/07/30 09:38:37;;;;;;;5.35;2.50;;;;;;;;;;5076289;28;20029;-49
2021/07/30 09:41:11;;;;;;;5.03;2.00;;;;;;;;;;5055169;28;20884;-49
2021/07/30 09:43:38;;;;;;;9.40;2.10;;;;;;;;;;5072733;28;20032;-48
2021/07/30 09:46:11;;;;;;;5.57;1.92;;;;;;;;;;5065612;28;20146;-48
2021/07/30 09:48:47;;;;;;;5.45;2.05;;;;;;;;;;5064486;28;20060;-49
2021/07/30 09:51:14;;;;;;;4.25;2.33;;;;;;;;;;5064673;28;20037;-48
2021/07/30 09:53:40;;;;;;;12.48;3.55;;;;;;;;;;5073624;28;20055;-48
2021/07/30 09:56:06;;;;;;;9.93;1.80;;;;;;;;;;5070669;28;20032;-49
2021/07/30 09:58:33;;;;;;;6.43;2.35;;;;;;;;;;5083728;28;20032;-48
2021/07/30 10:00:59;;;;;;;11.65;2.17;;;;;;;;;;5091461;28;20081;-50
2021/07/30 10:03:25;;;;;;;8.15;2.13;;;;;;;;;;5087498;28;20119;-48
2021/07/30 10:05:51;;;;;;;4.22;1.98;;;;;;;;;;5091446;28;20095;-48
2021/07/30 10:08:17;;;;;;;8.40;2.42;;;;;;;;;;5088288;28;20024;-48
2021/07/30 10:10:44;;;;;;;7.40;2.35;;;;;;;;;;5071488;28;20046;-48
2021/07/30 10:13:14;;;;;;;8.40;2.22;;;;;;;;;;5063841;28;20110;-48
2021/07/30 10:15:43;;;;;;;4.95;2.03;;;;;;;;;;5091490;28;20051;-48
2021/07/30 10:18:10;;;;;;;19.90;2.53;;;;;;;;;;5080496;28;20017;-48
2021/07/30 10:20:37;;;;;;;4.30;1.88;;;;;;;;;;5088459;28;20035;-48
2021/07/30 10:23:05;;;;;;;5.53;1.77;;;;;;;;;;5093510;28;20152;-50
2021/07/30 10:25:32;;;;;;;5.43;1.98;;;;;;;;;;5082873;28;20075;-49
2021/07/30 10:28:06;;;;;;;3.60;1.73;;;;;;;;;;5094711;28;20119;-49
2021/07/30 10:30:51;;;;;;;3.42;1.95;;;;;;;;;;5079466;28;20029;-48
2021/07/30 10:33:37;;;;;;;5.00;1.52;;;;;;;;;;5093194;28;20035;-49
2021/07/30 10:36:05;;;;;;;6.55;2.13;;;;;;;;;;5069256;28;20479;-48
2021/07/30 10:38:31;;;;;;;6.53;2.10;;;;;;;;;;5056964;28;20083;-48
2021/07/30 10:41:06;;;;;;;4.03;1.63;;;;;;;;;;5087896;28;20107;-49
2021/07/30 10:43:35;;;;;;;4.13;2.03;;;;;;;;;;5081214;28;20067;-48
2021/07/30 10:46:13;;;;;;;5.28;1.88;;;;;;;;;;5072160;28;20032;-48
2021/07/30 10:48:39;;;;;;;7.35;1.85;;;;;;;;;;5082043;28;20024;-48
2021/07/30 10:51:21;;;;;;;12.45;2.30;;;;;;;;;;5094993;28;20024;-48
2021/07/30 10:53:49;;;;;;;4.07;1.80;;;;;;;;;;5073124;28;20031;-48
2021/07/30 10:56:18;;;;;;;4.97;1.38;;;;;;;;;;5084049;28;20016;-48
2021/07/30 10:58:44;;;;;;;2.72;1.40;;;;;;;;;;5067336;28;20119;-54
2021/07/30 11:01:10;;;;;;;4.78;1.60;;;;;;;;;;5086521;28;20038;-48
2021/07/30 11:03:52;;;;;;;4.25;1.83;;;;;;;;;;5078850;28;20051;-51
2021/07/30 11:06:18;;;;;;;5.82;1.65;;;;;;;;;;5086367;28;20023;-48
2021/07/30 11:09:05;;;;;;;4.68;1.85;;;;;;;;;;5088757;28;20032;-49
2021/07/30 11:11:49;;;;;;;7.93;2.03;;;;;;;;;;5075266;28;20036;-48
2021/07/30 11:14:20;;;;;;;3.85;1.83;;;;;;;;;;5078497;28;20024;-50
2021/07/30 11:16:46;;;;;;;5.03;1.83;;;;;;;;;;5065076;28;20031;-48
2021/07/30 11:19:13;;;;;;;3.20;1.60;;;;;;;;;;5084980;28;20028;-49
2021/07/30 11:21:39;;;;;;;4.22;1.58;;;;;;;;;;5085844;28;20035;-48
2021/07/30 11:24:06;;;;;;;5.45;1.90;;;;;;;;;;5075765;28;20127;-48
2021/07/30 11:26:33;;;;;;;3.67;1.60;;;;;;;;;;5054287;28;20116;-51
2021/07/30 11:29:03;;;;;;;6.25;2.13;;;;;;;;;;5077258;28;20028;-49
2021/07/30 11:31:29;;;;;;;3.85;1.95;;;;;;;;;;5073920;28;20066;-48
2021/07/30 11:33:56;;;;;;;4.93;1.60;;;;;;;;;;5087636;28;20028;-49
2021/07/30 11:36:22;;;;;;;4.05;1.48;;;;;;;;;;5065652;28;20013;-49
2021/07/30 11:38:52;;;;;;;3.58;1.45;;;;;;;;;;5087006;28;20520;-48
2021/07/30 11:41:19;;;;;;;5.00;1.60;;;;;;;;;;5066065;28;20033;-48
2021/07/30 11:44:01;;;;;;;6.38;1.50;;;;;;;;;;5074226;28;20040;-49
2021/07/30 11:46:27;;;;;;;3.17;1.55;;;;;;;;;;5067687;28;20103;-49
2021/07/30 11:48:54;;;;;;;6.50;1.80;;;;;;;;;;5063982;28;20028;-48
2021/07/30 11:51:20;;;;;;;8.63;2.00;;;;;;;;;;5086113;28;20031;-48
2021/07/30 11:53:50;;;;;;;5.38;1.55;;;;;;;;;;5078395;28;20023;-54
2021/07/30 11:56:19;;;;;;;5.15;1.83;;;;;;;;;;5090790;28;20035;-49
2021/07/30 11:58:58;;;;;;;5.50;1.90;;;;;;;;;;5082807;28;20032;-51
2021/07/30 12:01:24;;;;;;;5.15;1.95;;;;;;;;;;5090903;28;20032;-51
2021/07/30 12:04:09;;;;;;;5.00;1.85;;;;;;;;;;5071467;28;20036;-52
2021/07/30 12:06:48;;;;;;;7.45;1.92;;;;;;;;;;5081893;28;20033;-48
2021/07/30 12:09:21;;;;;;;11.70;2.28;;;;;;;;;;5067613;28;20044;-50
2021/07/30 12:11:51;;;;;;;4.77;2.03;;;;;;;;;;5051718;28;20024;-52
2021/07/30 12:14:17;;;;;;;4.50;1.70;;;;;;;;;;5056683;28;20066;-52
2021/07/30 12:16:44;;;;;;;8.98;2.28;;;;;;;;;;5071105;28;20108;-48
2021/07/30 12:19:10;;;;;;;5.65;1.90;;;;;;;;;;5080436;28;20020;-50
2021/07/30 12:21:36;;;;;;;5.13;2.03;;;;;;;;;;5082975;28;20034;-48
2021/07/30 12:24:05;;;;;;;6.53;1.85;;;;;;;;;;5072197;28;20020;-48
2021/07/30 12:26:36;;;;;;;3.33;1.50;;;;;;;;;;5078955;28;20353;-48
2021/07/30 12:29:02;;;;;;;6.72;2.00;;;;;;;;;;5066481;28;20414;-49
2021/07/30 12:31:28;;;;;;;2.65;1.60;;;;;;;;;;5079115;28;20086;-48
2021/07/30 12:34:13;;;;;;;8.80;1.42;;;;;;;;;;5056815;28;20024;-48
2021/07/30 12:36:39;;;;;;;4.55;1.55;;;;;;;;;;5062133;28;20094;-48
2021/07/30 12:39:07;;;;;;;4.25;1.33;;;;;;;;;;5080390;28;20024;-49
2021/07/30 12:41:34;;;;;;;4.88;1.70;;;;;;;;;;5064538;28;20408;-50
2021/07/30 12:44:12;;;;;;;6.13;1.92;;;;;;;;;;5072483;28;20108;-49
2021/07/30 12:46:39;;;;;;;5.13;1.63;;;;;;;;;;5071571;28;20032;-48
2021/07/30 12:49:08;;;;;;;3.38;1.67;;;;;;;;;;5075224;28;20027;-48
2021/07/30 12:51:35;;;;;;;5.60;1.33;;;;;;;;;;5073351;28;20031;-49
2021/07/30 12:54:05;;;;;;;4.95;1.40;;;;;;;;;;5071867;28;20473;-48
2021/07/30 12:56:50;;;;;;;7.60;1.52;;;;;;;;;;5064937;28;20021;-53
2021/07/30 12:59:16;;;;;;;4.43;1.85;;;;;;;;;;5061913;28;20032;-48
2021/07/30 13:01:47;;;;;;;5.70;1.80;;;;;;;;;;5065278;28;20035;-53
2021/07/30 13:04:13;;;;;;;4.20;1.42;;;;;;;;;;5066988;28;20475;-48
2021/07/30 13:06:39;;;;;;;5.20;1.83;;;;;;;;;;5057860;28;20039;-50
2021/07/30 13:09:06;;;;;;;4.57;1.60;;;;;;;;;;5081055;28;20674;-50
2021/07/30 13:11:32;;;;;;;4.68;1.42;;;;;;;;;;5069481;28;20107;-48
2021/07/30 13:13:58;;;;;;;3.53;1.50;;;;;;;;;;5073066;28;20471;-50
2021/07/30 13:16:24;;;;;;;2.47;1.35;;;;;;;;;;5053124;28;20610;-48
2021/07/30 13:18:50;;;;;;;5.47;1.52;;;;;;;;;;5066294;28;20037;-48
2021/07/30 13:21:16;;;;;;;4.18;1.45;;;;;;;;;;5058134;28;20033;-48
2021/07/30 13:23:42;;;;;;;4.28;1.63;;;;;;;;;;5091701;28;20488;-49
2021/07/30 13:26:08;;;;;;;5.45;1.40;;;;;;;;;;5087150;28;20083;-48
2021/07/30 13:28:34;;;;;;;3.10;1.33;;;;;;;;;;5091704;28;20368;-48
2021/07/30 13:31:00;;;;;;;4.75;1.48;;;;;;;;;;5071173;28;20074;-49
2021/07/30 13:33:26;;;;;;;5.80;1.40;;;;;;;;;;5074095;28;20027;-48
2021/07/30 13:35:52;;;;;;;3.72;1.20;;;;;;;;;;5076838;28;20027;-49
2021/07/30 13:38:18;;;;;;;5.38;1.73;;;;;;;;;;5068949;28;20103;-49
2021/07/30 13:40:44;;;;;;;5.68;1.15;;;;;;;;;;5064513;28;20078;-50
2021/07/30 13:43:11;;;;;;;4.45;1.20;;;;;;;;;;5073602;28;20028;-48
2021/07/30 13:45:37;;;;;;;4.45;1.23;;;;;;;;;;5077712;28;20040;-48
2021/07/30 13:48:03;;;;;;;6.13;1.13;;;;;;;;;;5077598;28;20110;-48
2021/07/30 13:50:30;;;;;;;5.30;1.45;;;;;;;;;;5073609;28;20037;-49
2021/07/30 13:52:56;;;;;;;3.42;1.35;;;;;;;;;;5071769;28;20013;-49
2021/07/30 13:55:22;;;;;;;5.47;1.15;;;;;;;;;;5084817;28;20025;-48
2021/07/30 13:57:48;;;;;;;4.03;1.00;;;;;;;;;;5084975;28;20054;-48
2021/07/30 14:00:15;;;;;;;4.40;1.42;;;;;;;;;;5076004;28;20423;-50
2021/07/30 14:02:41;;;;;;;4.05;0.90;;;;;;;;;;5075651;28;20043;-49
2021/07/30 14:05:08;;;;;;;4.32;1.52;;;;;;;;;;5080527;28;20059;-51
2021/07/30 14:07:36;;;;;;;2.47;0.93;;;;;;;;;;5083189;28;20036;-51
2021/07/30 14:10:02;;;;;;;2.67;1.00;;;;;;;;;;5078825;28;20056;-47
2021/07/30 14:12:28;;;;;;;4.40;1.00;;;;;;;;;;5070647;28;20029;-50
2021/07/30 14:14:54;;;;;;;4.13;0.95;;;;;;;;;;5063286;28;20036;-49
2021/07/30 14:17:20;;;;;;;2.88;1.00;;;;;;;;;;5057376;28;20053;-53
2021/07/30 14:19:46;;;;;;;3.50;0.88;;;;;;;;;;5075074;28;20052;-49
2021/07/30 14:22:12;;;;;;;3.72;1.27;;;;;;;;;;5076394;28;20074;-46
2021/07/30 14:24:38;;;;;;;2.45;0.90;;;;;;;;;;5061766;28;20449;-46
2021/07/30 14:27:04;;;;;;;1.95;0.80;;;;;;;;;;5058168;28;20037;-47
2021/07/30 14:29:30;;;;;;;7.05;0.95;;;;;;;;;;5080017;28;20070;-46
2021/07/30 14:31:56;;;;;;;5.22;1.20;;;;;;;;;;5079150;28;20024;-46
2021/07/30 14:34:22;;;;;;;4.55;1.02;;;;;;;;;;5093282;28;20020;-46
2021/07/30 14:36:48;;;;;;;8.02;1.00;;;;;;;;;;5079403;28;20038;-46
2021/07/30 14:39:19;;;;;;;1.70;0.80;;;;;;;;;;5088603;28;20044;-46
2021/07/30 14:41:45;;;;;;;1.45;0.70;;;;;;;;;;5063271;28;20021;-47
2021/07/30 14:44:11;;;;;;;2.97;1.02;;;;;;;;;;5056556;28;20496;-46
2021/07/30 14:46:37;;;;;;;2.03;0.80;;;;;;;;;;5092800;28;20396;-46